Time;durP1;ratioP1;P1;durP2;ratioP2;P2;SDS_P1;SDS_P2;PMS_P1;PMS_P2;Temp;Humidity;BMP_temperature;BMP_pressure;BME280_temperature;BME280_humidity;BME280_pressure;Samples;Min_cycle;Max_cycle;Signal;HPM_P1;HPM_P2
2022/06/18 00:01:51;;;;;;;3.10;1.50;;;17.60;99.90;;;;;;5035035;28;20178;-81
2022/06/18 00:04:19;;;;;;;3.33;1.60;;;17.60;99.90;;;;;;5033734;28;20240;-80
2022/06/18 00:06:56;;;;;;;1.60;1.50;;;17.60;99.90;;;;;;5034484;28;20200;-81
2022/06/18 00:09:26;;;;;;;3.05;1.77;;;17.50;99.90;;;;;;5034469;28;20217;-80
2022/06/18 00:14:38;;;;;;;3.95;2.20;;;17.60;99.90;;;;;;5034780;28;20231;-80
2022/06/18 00:17:12;;;;;;;3.40;1.85;;;17.60;99.90;;;;;;5035825;28;20175;-81
2022/06/18 00:19:38;;;;;;;2.15;1.73;;;17.60;99.90;;;;;;5034893;28;20595;-81
2022/06/18 00:22:04;;;;;;;1.92;1.70;;;17.60;99.90;;;;;;5035439;28;20213;-80
2022/06/18 00:24:29;;;;;;;2.58;1.70;;;17.60;99.90;;;;;;5034910;28;20209;-80
2022/06/18 00:26:55;;;;;;;3.08;1.83;;;17.60;99.90;;;;;;5032485;28;20182;-79
2022/06/18 00:29:21;;;;;;;2.88;1.85;;;17.60;99.90;;;;;;5029974;28;20241;-81
2022/06/18 00:31:47;;;;;;;1.80;1.42;;;17.60;99.50;;;;;;5015695;28;20175;-82
2022/06/18 00:34:13;;;;;;;2.60;1.50;;;17.60;99.60;;;;;;5033367;28;20186;-81
2022/06/18 00:36:42;;;;;;;2.17;1.60;;;17.70;99.50;;;;;;5033355;28;20197;-81
2022/06/18 00:39:12;;;;;;;7.60;1.65;;;17.50;99.80;;;;;;5035598;28;20195;-80
2022/06/18 00:41:40;;;;;;;2.17;1.67;;;17.40;99.90;;;;;;5034477;28;20224;-81
2022/06/18 00:44:25;;;;;;;1.88;1.60;;;17.30;99.90;;;;;;5035334;28;20220;-80
2022/06/18 00:47:13;;;;;;;2.13;1.80;;;17.30;99.90;;;;;;5034508;28;20181;-81
2022/06/18 00:50:14;;;;;;;5.80;1.80;;;17.20;99.90;;;;;;5033633;28;20229;-81
2022/06/18 00:52:53;;;;;;;1.92;1.58;;;17.20;99.90;;;;;;5034325;28;20243;-81
2022/06/18 00:55:22;;;;;;;4.72;1.60;;;17.20;99.90;;;;;;5033873;28;20174;-80
2022/06/18 00:57:52;;;;;;;2.33;1.70;;;17.20;99.90;;;;;;5034079;28;20186;-80
2022/06/18 01:00:41;;;;;;;5.20;1.58;;;17.10;99.90;;;;;;5033322;28;20178;-80
2022/06/18 01:03:38;;;;;;;1.90;1.60;;;17.10;99.90;;;;;;5034168;28;20174;-80
2022/06/18 01:06:18;;;;;;;2.20;1.60;;;17.10;99.90;;;;;;5034889;28;20186;-80
2022/06/18 01:08:46;;;;;;;4.53;1.58;;;17.10;99.90;;;;;;5033948;28;20498;-80
2022/06/18 01:11:20;;;;;;;2.78;1.70;;;17.00;99.90;;;;;;5015206;28;20179;-80
2022/06/18 01:13:47;;;;;;;2.83;1.73;;;17.00;99.90;;;;;;5015912;28;20250;-80
2022/06/18 01:16:16;;;;;;;4.35;1.88;;;17.00;99.90;;;;;;5033127;28;20640;-81
2022/06/18 01:18:42;;;;;;;2.65;1.88;;;17.10;99.90;;;;;;5032736;28;20221;-80
2022/06/18 01:21:34;;;;;;;1.55;1.42;;;17.10;99.80;;;;;;5034847;28;20682;-80
2022/06/18 01:24:16;;;;;;;3.45;1.60;;;17.10;99.60;;;;;;5032180;28;20175;-80
2022/06/18 01:26:44;;;;;;;5.85;1.35;;;17.10;99.70;;;;;;5033800;28;20630;-80
2022/06/18 01:29:10;;;;;;;2.30;1.60;;;17.10;99.50;;;;;;5033005;28;20237;-81
2022/06/18 01:31:36;;;;;;;4.72;1.75;;;17.10;99.60;;;;;;5033473;28;20178;-81
2022/06/18 01:34:04;;;;;;;2.15;1.50;;;17.00;99.80;;;;;;5020761;28;20694;-81
2022/06/18 01:36:34;;;;;;;1.60;1.42;;;17.00;99.80;;;;;;5029876;28;20175;-80
2022/06/18 01:39:02;;;;;;;4.82;1.60;;;16.90;99.80;;;;;;5034024;28;20182;-81
2022/06/18 01:41:52;;;;;;;3.90;1.92;;;16.90;99.90;;;;;;5034302;28;20179;-80
2022/06/18 01:44:29;;;;;;;2.25;1.50;;;16.90;99.90;;;;;;5013344;28;20518;-80
2022/06/18 01:47:01;;;;;;;1.52;1.42;;;16.90;99.90;;;;;;5022498;28;20186;-79
2022/06/18 01:49:37;;;;;;;2.55;1.58;;;16.90;99.90;;;;;;5034215;28;20683;-80
2022/06/18 01:52:06;;;;;;;3.60;1.52;;;16.90;99.80;;;;;;5032068;28;20201;-80
2022/06/18 01:54:44;;;;;;;2.50;1.50;;;16.90;99.70;;;;;;5034393;28;20205;-79
2022/06/18 01:57:25;;;;;;;1.73;1.17;;;16.90;99.70;;;;;;5032144;28;20190;-80
2022/06/18 02:00:00;;;;;;;1.73;1.33;;;16.90;99.60;;;;;;5015484;28;20190;-80
2022/06/18 02:02:26;;;;;;;2.70;1.75;;;16.90;99.50;;;;;;5024689;28;20568;-81
2022/06/18 02:04:51;;;;;;;2.95;1.70;;;16.90;99.60;;;;;;5030785;28;20179;-80
2022/06/18 02:07:19;;;;;;;3.45;1.35;;;16.80;99.50;;;;;;5032843;28;20577;-79
2022/06/18 02:09:55;;;;;;;4.60;1.67;;;16.80;99.50;;;;;;5031727;28;20208;-81
2022/06/18 02:12:25;;;;;;;4.20;1.60;;;16.90;99.40;;;;;;5034000;28;20240;-81
2022/06/18 02:14:55;;;;;;;1.80;1.23;;;16.90;99.50;;;;;;5032369;28;20185;-80
2022/06/18 02:17:23;;;;;;;2.85;1.55;;;16.90;99.60;;;;;;5032738;28;20221;-80
2022/06/18 02:19:55;;;;;;;5.70;1.48;;;16.80;99.40;;;;;;5031421;28;20566;-80
2022/06/18 02:22:33;;;;;;;3.97;1.58;;;16.90;99.50;;;;;;5032723;28;20177;-80
2022/06/18 02:25:00;;;;;;;4.07;1.40;;;16.80;99.50;;;;;;5032851;28;20198;-80
2022/06/18 02:27:25;;;;;;;2.75;1.52;;;16.80;99.50;;;;;;5033747;28;20245;-81
2022/06/18 02:29:53;;;;;;;2.40;1.30;;;16.80;99.60;;;;;;5031780;28;20352;-81
2022/06/18 02:32:25;;;;;;;3.05;1.40;;;16.80;99.50;;;;;;5032407;28;20179;-81
2022/06/18 02:34:51;;;;;;;3.53;1.60;;;16.80;99.50;;;;;;5031609;28;20186;-80
2022/06/18 02:37:27;;;;;;;3.92;1.60;;;16.80;99.30;;;;;;5032413;28;20209;-79
2022/06/18 02:39:57;;;;;;;3.90;1.70;;;16.80;99.30;;;;;;5031118;28;20189;-80
2022/06/18 02:42:23;;;;;;;1.83;1.35;;;16.80;99.50;;;;;;5033618;28;20170;-80
2022/06/18 02:44:51;;;;;;;2.00;1.42;;;16.80;99.40;;;;;;5031290;28;20553;-81
2022/06/18 02:47:20;;;;;;;2.35;1.40;;;16.80;99.40;;;;;;5033570;28;20170;-80
2022/06/18 02:50:03;;;;;;;3.10;1.58;;;16.80;99.70;;;;;;5031436;28;20648;-80
2022/06/18 02:52:40;;;;;;;2.03;1.65;;;16.80;99.70;;;;;;5032342;28;20209;-80
2022/06/18 02:55:16;;;;;;;1.67;1.27;;;16.80;99.60;;;;;;5032699;28;20182;-80
2022/06/18 02:57:42;;;;;;;3.85;1.40;;;16.70;99.70;;;;;;5032233;28;20182;-79
2022/06/18 03:00:12;;;;;;;2.95;1.55;;;16.70;99.70;;;;;;5032883;28;20640;-80
2022/06/18 03:02:38;;;;;;;1.77;1.35;;;16.70;99.70;;;;;;5031038;28;20183;-80
2022/06/18 03:05:04;;;;;;;2.13;1.55;;;16.70;99.60;;;;;;5032940;28;20182;-80
2022/06/18 03:07:30;;;;;;;1.30;1.20;;;16.70;99.60;;;;;;5032234;28;20269;-82
2022/06/18 03:12:40;;;;;;;4.40;1.42;;;16.70;99.60;;;;;;5032638;28;20567;-81
2022/06/18 03:15:06;;;;;;;2.85;1.30;;;16.70;99.60;;;;;;5032736;28;20179;-80
2022/06/18 03:17:32;;;;;;;2.00;1.27;;;16.70;99.70;;;;;;5032451;28;20190;-80
2022/06/18 03:20:01;;;;;;;6.90;1.60;;;16.70;99.70;;;;;;5033256;28;20649;-80
2022/06/18 03:22:27;;;;;;;1.40;1.27;;;16.70;99.70;;;;;;5032302;28;20617;-81
2022/06/18 03:24:53;;;;;;;2.60;1.42;;;16.70;99.70;;;;;;5033492;28;20185;-81
2022/06/18 03:27:19;;;;;;;2.20;1.40;;;16.60;99.90;;;;;;5033389;28;20183;-80
2022/06/18 03:29:46;;;;;;;2.65;1.50;;;16.70;99.90;;;;;;5034880;28;20692;-80
2022/06/18 03:32:12;;;;;;;1.60;1.42;;;16.60;99.70;;;;;;5034741;28;20629;-80
2022/06/18 03:34:38;;;;;;;2.40;1.40;;;16.70;99.70;;;;;;5036650;28;20584;-81
2022/06/18 03:37:04;;;;;;;3.42;1.50;;;16.70;99.70;;;;;;5034826;28;20197;-81
2022/06/18 03:39:30;;;;;;;2.13;1.48;;;16.70;99.70;;;;;;5036679;28;20520;-80
2022/06/18 03:41:56;;;;;;;2.05;1.27;;;16.70;99.50;;;;;;5036033;28;20182;-79
2022/06/18 03:44:23;;;;;;;2.35;1.50;;;16.70;99.50;;;;;;5034019;28;20791;-80
2022/06/18 03:46:49;;;;;;;4.38;1.38;;;16.80;99.50;;;;;;5034355;28;20272;-80
2022/06/18 03:49:26;;;;;;;2.40;1.50;;;16.80;99.70;;;;;;5035119;28;20297;-80
2022/06/18 03:51:53;;;;;;;3.00;1.38;;;16.90;99.60;;;;;;5034209;28;20182;-81
2022/06/18 03:54:19;;;;;;;2.13;1.55;;;16.90;99.80;;;;;;5034821;28;20171;-80
2022/06/18 03:56:45;;;;;;;3.17;1.27;;;17.00;99.90;;;;;;5034701;28;20568;-80
2022/06/18 03:59:12;;;;;;;2.20;1.35;;;17.00;99.90;;;;;;5035775;28;20600;-81
2022/06/18 04:01:40;;;;;;;3.42;1.30;;;16.90;99.90;;;;;;5036393;28;20175;-81
2022/06/18 04:04:07;;;;;;;2.53;1.45;;;17.00;99.90;;;;;;5035426;28;20192;-81
2022/06/18 04:06:33;;;;;;;5.15;1.70;;;17.00;99.90;;;;;;5034900;28;20265;-81
2022/06/18 04:08:59;;;;;;;1.73;1.23;;;17.00;99.90;;;;;;5033644;28;20274;-80
2022/06/18 04:11:24;;;;;;;1.55;1.30;;;17.00;99.90;;;;;;5034657;28;20210;-80
2022/06/18 04:13:50;;;;;;;3.10;1.80;;;17.10;99.80;;;;;;5034935;28;20186;-81
2022/06/18 04:16:16;;;;;;;6.07;1.40;;;17.10;99.90;;;;;;5036143;28;20190;-80
2022/06/18 04:18:43;;;;;;;2.00;1.70;;;17.10;99.90;;;;;;5033904;28;20194;-80
2022/06/18 04:21:09;;;;;;;1.75;1.42;;;17.20;99.90;;;;;;5035115;28;20187;-81
2022/06/18 04:23:35;;;;;;;2.05;1.70;;;17.20;99.90;;;;;;5035953;28;20185;-80
2022/06/18 04:26:02;;;;;;;1.75;1.52;;;17.20;99.70;;;;;;5035687;28;20297;-80
2022/06/18 04:28:27;;;;;;;3.25;1.60;;;17.30;99.80;;;;;;5035279;28;20226;-80
2022/06/18 04:30:53;;;;;;;4.18;1.77;;;17.30;99.80;;;;;;5034242;28;20674;-80
2022/06/18 04:33:19;;;;;;;3.15;1.48;;;17.40;99.70;;;;;;5035526;28;20171;-80
2022/06/18 04:35:45;;;;;;;2.25;1.33;;;17.50;99.40;;;;;;5035656;28;20181;-81
2022/06/18 04:38:12;;;;;;;4.10;1.30;;;17.60;99.30;;;;;;5033194;28;20232;-80
2022/06/18 04:40:38;;;;;;;1.58;1.20;;;17.70;99.00;;;;;;5035522;28;20174;-80
2022/06/18 04:43:07;;;;;;;1.50;1.40;;;17.90;98.80;;;;;;5035594;28;20249;-80
2022/06/18 04:45:34;;;;;;;1.48;1.25;;;18.00;98.50;;;;;;5033795;28;20575;-81
2022/06/18 04:48:00;;;;;;;3.30;1.45;;;18.10;98.40;;;;;;5035230;28;20225;-81
2022/06/18 04:50:31;;;;;;;1.83;1.60;;;18.20;98.20;;;;;;5034140;28;20206;-80
2022/06/18 04:52:57;;;;;;;1.73;1.20;;;18.40;98.20;;;;;;5035273;28;20159;-81
2022/06/18 04:55:22;;;;;;;2.35;1.35;;;18.50;97.90;;;;;;5035184;28;20225;-81
2022/06/18 04:57:48;;;;;;;3.05;1.40;;;18.60;97.80;;;;;;5035327;28;20267;-81
2022/06/18 05:00:15;;;;;;;2.55;1.20;;;18.70;98.00;;;;;;5033628;28;20186;-81
2022/06/18 05:02:41;;;;;;;3.03;1.38;;;18.70;97.60;;;;;;5035293;28;20257;-81
2022/06/18 05:05:17;;;;;;;3.50;1.83;;;18.80;97.50;;;;;;5033802;28;20257;-80
2022/06/18 05:07:43;;;;;;;1.70;1.38;;;18.90;97.40;;;;;;5033816;28;20636;-81
2022/06/18 05:10:09;;;;;;;1.27;1.00;;;19.00;97.30;;;;;;5033664;28;20206;-82
2022/06/18 05:12:35;;;;;;;2.63;1.50;;;19.00;97.10;;;;;;5035087;28;20175;-81
2022/06/18 05:15:00;;;;;;;2.00;1.30;;;19.10;97.30;;;;;;5034548;28;20170;-81
2022/06/18 05:17:31;;;;;;;1.63;1.20;;;19.20;97.00;;;;;;5033715;28;20617;-81
2022/06/18 05:19:57;;;;;;;2.03;1.10;;;19.20;96.80;;;;;;5034864;28;20174;-81
2022/06/18 05:22:23;;;;;;;5.38;1.08;;;19.40;96.60;;;;;;5034732;28;20178;-81
2022/06/18 05:24:49;;;;;;;1.60;1.30;;;19.40;96.60;;;;;;5034744;28;20166;-81
2022/06/18 05:27:36;;;;;;;1.65;1.30;;;19.50;96.70;;;;;;5033545;28;20487;-80
2022/06/18 05:30:04;;;;;;;4.38;1.10;;;19.70;96.30;;;;;;5033026;28;20249;-81
2022/06/18 05:32:29;;;;;;;1.17;1.05;;;19.70;96.20;;;;;;5032930;28;20181;-81
2022/06/18 05:34:55;;;;;;;1.80;1.00;;;19.80;96.70;;;;;;5032578;28;20190;-81
2022/06/18 05:37:24;;;;;;;2.53;1.13;;;19.90;96.40;;;;;;5034683;28;20171;-82
2022/06/18 05:39:50;;;;;;;4.93;1.30;;;19.90;96.00;;;;;;5034501;28;20178;-81
2022/06/18 05:42:15;;;;;;;1.52;1.15;;;20.00;95.90;;;;;;5033103;28;20317;-81
2022/06/18 05:44:41;;;;;;;2.92;1.10;;;20.10;96.00;;;;;;5033948;28;20177;-80
2022/06/18 05:47:14;;;;;;;3.28;1.20;;;20.10;96.10;;;;;;5034149;28;20182;-81
2022/06/18 05:49:40;;;;;;;3.20;1.17;;;20.20;95.90;;;;;;5032321;28;20554;-81
2022/06/18 05:52:07;;;;;;;3.25;1.13;;;20.30;95.90;;;;;;5033892;28;20182;-81
2022/06/18 05:54:32;;;;;;;2.58;1.30;;;20.40;95.90;;;;;;5033079;28;20182;-80
2022/06/18 05:56:59;;;;;;;4.00;1.00;;;20.40;96.10;;;;;;5032804;28;20623;-80
2022/06/18 05:59:24;;;;;;;2.17;1.02;;;20.50;95.80;;;;;;5033733;28;20178;-82
2022/06/18 06:01:50;;;;;;;2.17;1.30;;;20.60;95.60;;;;;;5032298;28;20273;-81
2022/06/18 06:04:19;;;;;;;1.45;1.10;;;20.70;96.00;;;;;;5032103;28;20183;-79
2022/06/18 06:06:45;;;;;;;1.85;1.10;;;20.80;95.80;;;;;;5033887;28;20166;-81
2022/06/18 06:11:28;;;;;;;3.13;1.15;;;20.90;96.00;;;;;;5034076;28;20515;-81
2022/06/18 06:12:00;;;;;;;3.25;1.30;;;21.00;95.70;;;;;;5034104;28;20261;-81
2022/06/18 06:14:26;;;;;;;4.57;1.00;;;21.10;95.30;;;;;;5032831;28;20202;-81
2022/06/18 06:16:51;;;;;;;2.53;1.27;;;21.20;95.60;;;;;;5033186;28;20205;-81
2022/06/18 06:19:17;;;;;;;4.57;1.58;;;21.30;95.40;;;;;;5034469;28;20174;-82
2022/06/18 06:21:42;;;;;;;1.77;1.00;;;21.40;95.40;;;;;;5025506;28;20183;-82
2022/06/18 06:24:08;;;;;;;1.65;1.00;;;21.50;94.60;;;;;;5018791;28;20188;-82
2022/06/18 06:26:35;;;;;;;2.63;1.00;;;21.70;94.70;;;;;;5013512;28;20196;-81
2022/06/18 06:29:02;;;;;;;1.85;1.15;;;21.80;95.20;;;;;;5021032;28;20229;-80
2022/06/18 06:31:29;;;;;;;2.33;1.10;;;21.90;95.10;;;;;;5029864;28;20172;-81
2022/06/18 06:33:54;;;;;;;1.70;1.13;;;22.20;94.70;;;;;;5012378;28;20618;-81
2022/06/18 06:36:20;;;;;;;2.05;1.20;;;22.30;93.90;;;;;;5013595;28;20171;-81
2022/06/18 06:38:46;;;;;;;2.25;1.15;;;22.40;93.80;;;;;;5012060;28;20238;-81
2022/06/18 06:41:19;;;;;;;2.38;1.30;;;22.50;93.50;;;;;;5028725;28;20190;-81
2022/06/18 06:43:47;;;;;;;3.97;1.30;;;22.60;93.40;;;;;;5029154;28;20175;-80
2022/06/18 06:46:15;;;;;;;1.20;0.98;;;22.70;93.90;;;;;;5014870;28;20164;-81
2022/06/18 06:48:41;;;;;;;1.65;1.10;;;22.90;93.70;;;;;;5013669;28;20270;-82
2022/06/18 06:51:28;;;;;;;5.03;1.38;;;23.00;93.50;;;;;;5013529;28;20210;-81
2022/06/18 06:53:54;;;;;;;2.50;1.15;;;23.10;93.50;;;;;;5012112;28;20175;-82
2022/06/18 06:59:08;;;;;;;3.08;1.20;;;23.40;92.70;;;;;;5021954;28;20557;-82
2022/06/18 07:01:34;;;;;;;5.00;1.20;;;23.50;92.80;;;;;;5034493;28;20177;-83
2022/06/18 07:04:01;;;;;;;2.38;1.30;;;23.60;92.60;;;;;;5036023;28;20171;-81
2022/06/18 07:06:27;;;;;;;4.78;1.30;;;23.70;92.30;;;;;;5035789;28;20217;-81
2022/06/18 07:08:53;;;;;;;3.10;1.10;;;23.80;92.40;;;;;;5035976;28;20210;-82
2022/06/18 07:11:19;;;;;;;1.75;1.30;;;23.90;92.30;;;;;;5037131;28;20210;-82
2022/06/18 07:13:44;;;;;;;2.38;1.35;;;24.00;92.50;;;;;;5035542;28;20217;-81
2022/06/18 07:16:12;;;;;;;1.70;1.40;;;24.10;92.20;;;;;;5035553;28;20640;-81
2022/06/18 07:18:39;;;;;;;2.35;1.25;;;24.30;92.00;;;;;;5036395;28;20177;-80
2022/06/18 07:21:10;;;;;;;2.60;1.42;;;24.40;92.20;;;;;;5036883;28;20636;-80
2022/06/18 07:23:36;;;;;;;2.15;1.50;;;24.50;91.80;;;;;;5035647;28;20183;-81
2022/06/18 07:26:02;;;;;;;4.97;1.45;;;24.70;92.00;;;;;;5036977;28;20474;-81
2022/06/18 07:28:28;;;;;;;2.90;1.60;;;24.80;91.90;;;;;;5036682;28;20234;-82
2022/06/18 07:30:54;;;;;;;4.28;1.38;;;25.00;92.10;;;;;;5015602;28;20361;-82
2022/06/18 07:33:23;;;;;;;3.03;1.77;;;25.10;91.60;;;;;;5015679;28;20183;-82
2022/06/18 07:35:49;;;;;;;6.50;1.73;;;25.30;91.90;;;;;;5021732;28;20186;-82
2022/06/18 07:38:16;;;;;;;5.43;1.75;;;25.30;91.20;;;;;;5030186;28;20178;-80
2022/06/18 07:40:44;;;;;;;2.55;1.33;;;25.40;91.20;;;;;;5029200;28;20564;-81
2022/06/18 07:43:16;;;;;;;3.80;1.42;;;25.50;91.40;;;;;;5035369;28;20178;-81
2022/06/18 07:45:41;;;;;;;2.03;1.30;;;25.50;91.20;;;;;;5033887;28;20229;-82
2022/06/18 07:48:07;;;;;;;4.40;1.70;;;25.70;91.00;;;;;;5034990;28;20192;-81
2022/06/18 07:50:33;;;;;;;1.92;1.65;;;25.70;90.90;;;;;;5035235;28;20203;-82
2022/06/18 07:52:58;;;;;;;2.80;1.23;;;26.00;90.70;;;;;;5036463;28;20215;-82
2022/06/18 07:55:27;;;;;;;2.25;1.73;;;26.10;91.40;;;;;;5033775;28;20190;-81
2022/06/18 07:57:53;;;;;;;3.88;1.40;;;26.30;90.70;;;;;;5034278;28;20641;-82
2022/06/18 08:00:21;;;;;;;4.35;1.63;;;26.50;91.40;;;;;;5035942;28;20186;-82
2022/06/18 08:02:47;;;;;;;2.33;1.50;;;26.50;90.70;;;;;;5034870;28;20177;-82
2022/06/18 08:05:23;;;;;;;4.03;1.75;;;26.70;90.80;;;;;;5036017;28;20585;-82
2022/06/18 08:07:48;;;;;;;2.95;1.60;;;26.70;90.70;;;;;;5035917;28;20245;-82
2022/06/18 08:10:14;;;;;;;6.05;1.50;;;26.80;90.90;;;;;;5036164;28;20309;-82
2022/06/18 08:12:40;;;;;;;2.58;1.70;;;26.80;90.10;;;;;;5035956;28;20675;-81
2022/06/18 08:15:06;;;;;;;3.00;1.50;;;26.90;90.70;;;;;;5034415;28;20191;-82
2022/06/18 08:17:32;;;;;;;3.30;1.50;;;27.00;90.70;;;;;;5034791;28;20257;-82
2022/06/18 08:19:58;;;;;;;2.88;1.30;;;27.00;89.70;;;;;;5023553;28;20270;-82
2022/06/18 08:22:25;;;;;;;3.75;1.77;;;27.00;90.60;;;;;;5033892;28;20186;-81
2022/06/18 08:24:51;;;;;;;2.78;1.52;;;27.10;90.40;;;;;;5032298;28;20232;-82
2022/06/18 08:27:19;;;;;;;3.53;2.00;;;27.30;90.50;;;;;;5034672;28;20210;-82
2022/06/18 08:29:45;;;;;;;7.70;1.70;;;27.20;90.00;;;;;;5035107;28;20283;-82
2022/06/18 08:32:10;;;;;;;2.00;1.70;;;27.40;90.40;;;;;;5034461;28;20194;-82
2022/06/18 08:34:36;;;;;;;4.57;1.70;;;27.50;90.20;;;;;;5033629;28;20281;-83
2022/06/18 08:37:04;;;;;;;3.70;1.70;;;27.60;90.70;;;;;;5031832;28;20268;-81
2022/06/18 08:39:32;;;;;;;3.72;1.80;;;27.70;90.30;;;;;;5035303;28;20178;-82
2022/06/18 08:42:22;;;;;;;3.17;1.88;;;27.60;89.10;;;;;;5032832;28;20273;-81
2022/06/18 08:45:15;;;;;;;4.78;1.95;;;27.50;89.30;;;;;;5033102;28;20522;-81
2022/06/18 08:48:14;;;;;;;3.35;1.83;;;27.60;90.10;;;;;;5030712;28;20194;-82
2022/06/18 08:51:03;;;;;;;4.35;2.03;;;27.80;90.90;;;;;;5034552;28;20268;-82
2022/06/18 08:54:13;;;;;;;4.22;1.83;;;28.00;89.90;;;;;;5033317;28;20182;-81
2022/06/18 08:56:46;;;;;;;4.35;2.30;;;28.10;89.70;;;;;;5033252;28;20217;-82
2022/06/18 08:59:32;;;;;;;4.00;1.65;;;28.20;89.00;;;;;;5032982;28;20219;-82
2022/06/18 09:02:09;;;;;;;7.47;1.73;;;28.40;89.30;;;;;;5034759;28;20186;-82
2022/06/18 09:04:45;;;;;;;2.60;1.85;;;28.50;90.00;;;;;;5034041;28;20646;-82
2022/06/18 09:07:32;;;;;;;4.90;2.25;;;28.70;89.60;;;;;;5032831;28;20518;-82
2022/06/18 09:10:22;;;;;;;4.93;1.90;;;28.80;88.40;;;;;;5020718;28;20228;-81
2022/06/18 09:13:17;;;;;;;3.38;2.00;;;28.90;88.30;;;;;;5033951;28;20179;-82
2022/06/18 09:15:51;;;;;;;5.63;1.90;;;29.00;88.00;;;;;;5032546;28;20187;-82
2022/06/18 09:18:34;;;;;;;4.47;1.92;;;29.10;88.00;;;;;;5032402;28;20222;-82
2022/06/18 09:21:04;;;;;;;3.85;1.98;;;29.20;88.50;;;;;;5033429;28;20614;-82
2022/06/18 09:23:36;;;;;;;4.10;1.80;;;29.30;87.00;;;;;;5033907;28;20277;-82
2022/06/18 09:26:09;;;;;;;3.13;1.90;;;29.30;88.50;;;;;;5033243;28;20337;-82
2022/06/18 09:28:41;;;;;;;4.13;2.28;;;29.30;88.90;;;;;;5033310;28;20230;-80
2022/06/18 09:31:09;;;;;;;3.00;2.00;;;29.40;87.30;;;;;;5033207;28;20210;-81
2022/06/18 09:33:49;;;;;;;3.58;1.80;;;29.50;87.90;;;;;;5032814;28;20182;-82
2022/06/18 09:36:27;;;;;;;3.90;2.20;;;29.60;88.40;;;;;;5032599;28;20182;-81
2022/06/18 09:39:01;;;;;;;3.28;1.92;;;29.60;87.60;;;;;;5032603;28;20624;-80
2022/06/18 09:41:41;;;;;;;4.45;2.30;;;29.60;88.30;;;;;;5033785;28;20190;-82
2022/06/18 09:44:39;;;;;;;4.22;2.45;;;29.80;86.70;;;;;;5033537;28;20174;-81
2022/06/18 09:47:41;;;;;;;4.82;2.38;;;29.80;87.90;;;;;;5033221;28;20621;-82
2022/06/18 09:50:20;;;;;;;6.30;2.30;;;29.80;87.10;;;;;;5031574;28;20221;-82
2022/06/18 09:52:49;;;;;;;2.88;2.35;;;29.80;87.40;;;;;;5030169;28;20267;-81
2022/06/18 09:55:23;;;;;;;7.88;2.17;;;29.80;87.70;;;;;;5029311;28;20189;-82
2022/06/18 09:57:53;;;;;;;3.47;2.17;;;30.00;87.60;;;;;;5020850;28;20178;-82
2022/06/18 10:00:28;;;;;;;6.20;2.38;;;30.00;86.40;;;;;;5032861;28;20532;-81
2022/06/18 10:03:04;;;;;;;5.72;2.30;;;30.10;87.30;;;;;;5031458;28;20196;-82
2022/06/18 10:08:26;;;;;;;7.55;2.50;;;30.20;87.40;;;;;;5033201;28;20216;-82
2022/06/18 10:10:55;;;;;;;9.07;2.58;;;30.40;85.50;;;;;;5033008;28;20210;-82
2022/06/18 10:13:29;;;;;;;6.35;2.47;;;30.50;86.00;;;;;;5033331;28;20185;-81
2022/06/18 10:16:02;;;;;;;6.28;2.40;;;30.50;85.50;;;;;;5030195;28;20186;-81
2022/06/18 10:18:40;;;;;;;5.00;2.33;;;30.50;85.50;;;;;;5032101;28;20189;-82
2022/06/18 10:21:29;;;;;;;6.95;2.58;;;30.50;86.50;;;;;;5032534;28;20186;-82
2022/06/18 10:24:11;;;;;;;5.68;1.95;;;30.60;87.20;;;;;;5030866;28;20182;-82
2022/06/18 10:26:54;;;;;;;4.85;2.08;;;30.80;85.40;;;;;;5021285;28;20311;-82
2022/06/18 10:29:29;;;;;;;4.90;2.20;;;30.80;85.40;;;;;;5021918;28;20279;-82
2022/06/18 10:32:19;;;;;;;5.40;2.35;;;30.90;85.10;;;;;;5032388;28;20192;-82
2022/06/18 10:34:58;;;;;;;4.38;2.45;;;30.90;85.20;;;;;;5031006;28;20240;-82
2022/06/18 10:37:52;;;;;;;5.05;2.10;;;30.80;84.10;;;;;;5033062;28;20193;-82
2022/06/18 10:41:06;;;;;;;4.57;2.22;;;30.70;84.00;;;;;;5032194;28;20190;-82
2022/06/18 10:43:53;;;;;;;8.77;2.45;;;30.80;85.60;;;;;;5032256;28;20182;-82
2022/06/18 10:46:21;;;;;;;6.03;2.17;;;31.00;84.90;;;;;;5032416;28;20185;-82
2022/06/18 10:49:23;;;;;;;4.35;2.55;;;31.00;84.40;;;;;;5032426;28;20245;-82
2022/06/18 10:51:49;;;;;;;5.97;2.80;;;31.00;84.60;;;;;;5031536;28;20629;-83
2022/06/18 10:54:15;;;;;;;5.45;2.30;;;31.20;84.80;;;;;;5031695;28;20185;-82
2022/06/18 10:56:50;;;;;;;5.78;2.55;;;31.30;84.40;;;;;;5032384;28;20530;-82
2022/06/18 10:59:34;;;;;;;5.75;3.05;;;31.50;85.80;;;;;;5032369;28;20235;-82
2022/06/18 11:02:09;;;;;;;4.25;2.30;;;31.60;84.00;;;;;;5031632;28;20185;-82
2022/06/18 11:04:36;;;;;;;6.65;2.55;;;31.70;83.20;;;;;;5031447;28;20197;-83
2022/06/18 11:07:07;;;;;;;5.88;2.38;;;31.60;83.20;;;;;;5031239;28;20231;-81
2022/06/18 11:09:57;;;;;;;5.30;2.60;;;31.70;84.20;;;;;;5031632;28;20213;-82
2022/06/18 11:12:32;;;;;;;7.68;2.80;;;31.80;84.20;;;;;;5032632;28;20197;-82
2022/06/18 11:14:59;;;;;;;6.20;2.50;;;31.70;83.20;;;;;;5030970;28;20184;-81
2022/06/18 11:17:29;;;;;;;9.52;2.70;;;31.70;82.70;;;;;;5032626;28;20197;-82
2022/06/18 11:20:25;;;;;;;3.78;2.55;;;31.80;82.50;;;;;;5031335;28;20247;-82
2022/06/18 11:23:13;;;;;;;3.28;2.13;;;31.90;82.60;;;;;;5032131;28;20197;-82
2022/06/18 11:25:39;;;;;;;8.07;2.83;;;31.90;83.10;;;;;;5031023;28;20325;-82
2022/06/18 11:28:33;;;;;;;5.53;2.40;;;31.90;81.90;;;;;;5030488;28;20324;-82
2022/06/18 11:31:01;;;;;;;8.77;2.40;;;31.80;81.80;;;;;;5027917;28;20217;-82
2022/06/18 11:33:39;;;;;;;4.50;2.40;;;32.00;82.10;;;;;;5030927;28;20255;-81
2022/06/18 11:36:17;;;;;;;6.20;2.63;;;31.90;81.50;;;;;;5032146;28;20292;-82
2022/06/18 11:38:52;;;;;;;9.50;2.95;;;32.10;83.30;;;;;;5032509;28;20174;-82
2022/06/18 11:41:40;;;;;;;5.97;2.50;;;32.20;82.60;;;;;;5031859;28;20261;-81
2022/06/18 11:44:25;;;;;;;6.70;2.80;;;32.20;81.40;;;;;;5017388;28;20201;-81
2022/06/18 11:47:14;;;;;;;6.72;2.85;;;32.40;82.00;;;;;;5031828;28;20193;-82
2022/06/18 11:49:53;;;;;;;5.78;2.33;;;32.50;79.50;;;;;;5035140;28;20263;-81
2022/06/18 11:52:27;;;;;;;6.15;2.25;;;32.70;79.30;;;;;;5033631;28;20221;-82
2022/06/18 11:55:15;;;;;;;6.13;2.35;;;32.70;80.00;;;;;;5048932;28;20610;-82
2022/06/18 11:58:19;;;;;;;11.15;2.90;;;32.80;79.10;;;;;;5035647;28;20190;-81
2022/06/18 12:01:10;;;;;;;8.55;2.55;;;32.80;78.20;;;;;;5029852;28;20198;-81
2022/06/18 12:03:38;;;;;;;8.38;2.80;;;32.80;77.50;;;;;;5035590;28;20644;-81
2022/06/18 12:06:12;;;;;;;11.73;2.90;;;32.60;76.80;;;;;;5035204;28;20189;-81
2022/06/18 12:08:40;;;;;;;9.23;2.72;;;32.70;76.90;;;;;;5034023;28;20186;-82
2022/06/18 12:11:47;;;;;;;8.95;2.58;;;32.70;76.90;;;;;;5034291;28;20243;-81
2022/06/18 12:14:38;;;;;;;6.20;2.53;;;32.80;78.20;;;;;;5034175;28;20186;-82
2022/06/18 12:17:29;;;;;;;6.80;2.60;;;32.80;78.50;;;;;;5035166;28;20177;-82
2022/06/18 12:20:24;;;;;;;8.95;2.75;;;33.00;77.00;;;;;;5034588;28;20182;-81
2022/06/18 12:23:07;;;;;;;8.77;2.50;;;33.10;78.40;;;;;;5026739;28;20185;-81
2022/06/18 12:25:36;;;;;;;9.88;2.78;;;33.20;77.20;;;;;;5031928;28;20485;-81
2022/06/18 12:29:00;;;;;;;7.20;2.60;;;33.10;76.50;;;;;;5030902;28;20345;-81
2022/06/18 12:31:29;;;;;;;7.22;2.75;;;33.30;77.00;;;;;;4985399;28;20245;-80
2022/06/18 12:34:00;;;;;;;7.45;2.72;;;33.30;77.00;;;;;;5022857;28;20202;-80
2022/06/18 12:37:12;;;;;;;9.68;2.70;;;33.30;77.10;;;;;;5033499;28;20236;-83
2022/06/18 12:39:40;;;;;;;12.05;3.42;;;33.20;75.80;;;;;;4987669;28;20187;-81
2022/06/18 12:42:44;;;;;;;7.68;2.53;;;33.30;77.00;;;;;;5022873;28;20178;-81
2022/06/18 12:45:16;;;;;;;10.63;2.65;;;33.40;76.00;;;;;;5025236;28;20313;-81
2022/06/18 12:47:52;;;;;;;7.40;2.65;;;33.50;77.10;;;;;;5032578;28;20563;-82
2022/06/18 12:50:43;;;;;;;10.65;2.70;;;33.60;75.80;;;;;;5019986;28;20206;-80
2022/06/18 12:53:20;;;;;;;12.80;3.40;;;33.60;74.60;;;;;;5030069;28;20620;-79
2022/06/18 12:55:55;;;;;;;7.72;2.90;;;33.50;74.50;;;;;;5028373;28;20534;-81
2022/06/18 12:58:26;;;;;;;7.07;2.78;;;33.40;75.80;;;;;;5028901;28;20181;-81
2022/06/18 13:01:00;;;;;;;15.82;3.20;;;33.40;74.60;;;;;;5031268;28;20174;-81
2022/06/18 13:03:44;;;;;;;7.68;2.70;;;33.30;74.70;;;;;;5027923;28;20197;-79
2022/06/18 13:06:38;;;;;;;9.82;2.92;;;33.10;75.00;;;;;;5027955;28;20177;-81
2022/06/18 13:09:03;;;;;;;7.28;3.05;;;33.00;76.60;;;;;;5029897;28;20603;-81
2022/06/18 13:12:01;;;;;;;6.75;2.47;;;33.10;76.30;;;;;;5032616;28;20293;-81
2022/06/18 13:14:39;;;;;;;9.45;2.80;;;33.30;75.90;;;;;;5012762;28;20236;-82
2022/06/18 13:17:30;;;;;;;8.18;2.45;;;33.30;76.00;;;;;;5028785;28;20281;-82
2022/06/18 13:20:16;;;;;;;7.15;3.00;;;33.40;76.20;;;;;;5031299;28;20193;-81
2022/06/18 13:22:42;;;;;;;5.43;2.72;;;33.40;76.40;;;;;;5032423;28;20198;-80
2022/06/18 13:28:28;;;;;;;11.55;2.95;;;33.50;76.60;;;;;;5028939;28;20268;-81
2022/06/18 13:31:03;;;;;;;6.50;2.72;;;33.70;75.50;;;;;;5028927;28;20220;-81